sensor_id;sensor_type;location;lat;lon;timestamp;P1;durP1;ratioP1;P2;durP2;ratioP2
8777;SDS011;4425;50.872;4.712;2022-10-16T00:00:00;2.35;;;1.88;;
8777;SDS011;4425;50.872;4.712;2022-10-16T00:02:29;2.13;;;1.70;;
8777;SDS011;4425;50.872;4.712;2022-10-16T00:04:55;2.15;;;1.90;;
8777;SDS011;4425;50.872;4.712;2022-10-16T00:07:22;2.47;;;1.70;;
8777;SDS011;4425;50.872;4.712;2022-10-16T00:09:49;2.05;;;1.83;;
8777;SDS011;4425;50.872;4.712;2022-10-16T00:12:17;2.38;;;1.80;;
8777;SDS011;4425;50.872;4.712;2022-10-16T00:14:44;1.65;;;1.60;;
8777;SDS011;4425;50.872;4.712;2022-10-16T00:17:12;2.38;;;1.73;;
8777;SDS011;4425;50.872;4.712;2022-10-16T00:19:41;1.73;;;1.63;;
8777;SDS011;4425;50.872;4.712;2022-10-16T00:22:09;2.78;;;1.85;;
8777;SDS011;4425;50.872;4.712;2022-10-16T00:24:36;2.00;;;1.60;;
8777;SDS011;4425;50.872;4.712;2022-10-16T00:27:03;1.95;;;1.77;;
8777;SDS011;4425;50.872;4.712;2022-10-16T00:29:30;1.98;;;1.70;;
8777;SDS011;4425;50.872;4.712;2022-10-16T00:31:57;3.05;;;1.52;;
8777;SDS011;4425;50.872;4.712;2022-10-16T00:34:24;2.67;;;1.67;;
8777;SDS011;4425;50.872;4.712;2022-10-16T00:36:52;1.75;;;1.65;;
8777;SDS011;4425;50.872;4.712;2022-10-16T00:39:19;3.33;;;1.70;;
8777;SDS011;4425;50.872;4.712;2022-10-16T00:41:47;2.38;;;1.70;;
8777;SDS011;4425;50.872;4.712;2022-10-16T00:47:23;1.70;;;1.60;;
8777;SDS011;4425;50.872;4.712;2022-10-16T00:50:09;1.70;;;1.60;;
8777;SDS011;4425;50.872;4.712;2022-10-16T00:52:44;2.83;;;1.50;;
8777;SDS011;4425;50.872;4.712;2022-10-16T00:55:13;1.65;;;1.50;;
8777;SDS011;4425;50.872;4.712;2022-10-16T00:57:41;1.92;;;1.60;;
8777;SDS011;4425;50.872;4.712;2022-10-16T01:00:11;1.67;;;1.58;;
8777;SDS011;4425;50.872;4.712;2022-10-16T01:02:43;2.75;;;1.67;;
8777;SDS011;4425;50.872;4.712;2022-10-16T01:05:10;2.72;;;1.60;;
8777;SDS011;4425;50.872;4.712;2022-10-16T01:07:40;1.85;;;1.50;;
8777;SDS011;4425;50.872;4.712;2022-10-16T01:10:17;2.50;;;1.80;;
8777;SDS011;4425;50.872;4.712;2022-10-16T01:12:54;3.20;;;1.50;;
8777;SDS011;4425;50.872;4.712;2022-10-16T01:15:27;2.42;;;1.60;;
8777;SDS011;4425;50.872;4.712;2022-10-16T01:18:00;1.60;;;1.50;;
8777;SDS011;4425;50.872;4.712;2022-10-16T01:20:33;1.50;;;1.40;;
8777;SDS011;4425;50.872;4.712;2022-10-16T01:23:07;1.80;;;1.70;;
8777;SDS011;4425;50.872;4.712;2022-10-16T01:25:53;2.42;;;1.40;;
8777;SDS011;4425;50.872;4.712;2022-10-16T01:28:38;2.35;;;1.42;;
8777;SDS011;4425;50.872;4.712;2022-10-16T01:31:09;2.83;;;1.63;;
8777;SDS011;4425;50.872;4.712;2022-10-16T01:33:42;2.85;;;1.50;;
8777;SDS011;4425;50.872;4.712;2022-10-16T01:36:14;2.15;;;1.30;;
8777;SDS011;4425;50.872;4.712;2022-10-16T01:38:46;2.60;;;1.50;;
8777;SDS011;4425;50.872;4.712;2022-10-16T01:41:17;3.20;;;1.60;;
8777;SDS011;4425;50.872;4.712;2022-10-16T01:43:56;2.78;;;1.40;;
8777;SDS011;4425;50.872;4.712;2022-10-16T01:46:28;2.17;;;1.70;;
8777;SDS011;4425;50.872;4.712;2022-10-16T01:48:56;1.90;;;1.50;;
8777;SDS011;4425;50.872;4.712;2022-10-16T01:51:25;2.80;;;1.40;;
8777;SDS011;4425;50.872;4.712;2022-10-16T01:53:57;1.48;;;1.40;;
8777;SDS011;4425;50.872;4.712;2022-10-16T01:56:31;1.65;;;1.52;;
8777;SDS011;4425;50.872;4.712;2022-10-16T01:59:02;1.67;;;1.58;;
8777;SDS011;4425;50.872;4.712;2022-10-16T02:01:33;1.85;;;1.67;;
8777;SDS011;4425;50.872;4.712;2022-10-16T02:04:03;2.00;;;1.50;;
8777;SDS011;4425;50.872;4.712;2022-10-16T02:06:40;3.20;;;1.67;;
8777;SDS011;4425;50.872;4.712;2022-10-16T02:09:07;2.27;;;1.53;;
8777;SDS011;4425;50.872;4.712;2022-10-16T02:11:35;2.35;;;1.73;;
8777;SDS011;4425;50.872;4.712;2022-10-16T02:14:04;3.75;;;1.70;;
8777;SDS011;4425;50.872;4.712;2022-10-16T02:16:33;1.70;;;1.47;;
8777;SDS011;4425;50.872;4.712;2022-10-16T02:19:02;2.47;;;1.80;;
8777;SDS011;4425;50.872;4.712;2022-10-16T02:21:32;2.80;;;1.80;;
8777;SDS011;4425;50.872;4.712;2022-10-16T02:24:08;2.17;;;1.77;;
8777;SDS011;4425;50.872;4.712;2022-10-16T02:26:45;1.95;;;1.75;;
8777;SDS011;4425;50.872;4.712;2022-10-16T02:29:20;1.80;;;1.70;;
8777;SDS011;4425;50.872;4.712;2022-10-16T02:31:50;2.83;;;1.60;;
8777;SDS011;4425;50.872;4.712;2022-10-16T02:34:21;3.20;;;1.90;;
8777;SDS011;4425;50.872;4.712;2022-10-16T02:36:51;2.33;;;1.60;;
8777;SDS011;4425;50.872;4.712;2022-10-16T02:39:20;2.85;;;1.58;;
8777;SDS011;4425;50.872;4.712;2022-10-16T02:41:47;1.50;;;1.50;;
8777;SDS011;4425;50.872;4.712;2022-10-16T02:44:14;2.10;;;1.60;;
8777;SDS011;4425;50.872;4.712;2022-10-16T02:46:43;2.25;;;1.67;;
8777;SDS011;4425;50.872;4.712;2022-10-16T02:49:10;3.30;;;1.77;;
8777;SDS011;4425;50.872;4.712;2022-10-16T02:51:37;2.70;;;1.67;;
8777;SDS011;4425;50.872;4.712;2022-10-16T02:54:04;3.03;;;1.70;;
8777;SDS011;4425;50.872;4.712;2022-10-16T02:56:31;1.70;;;1.63;;
8777;SDS011;4425;50.872;4.712;2022-10-16T02:59:04;2.77;;;1.73;;
8777;SDS011;4425;50.872;4.712;2022-10-16T03:01:32;1.90;;;1.80;;
8777;SDS011;4425;50.872;4.712;2022-10-16T03:06:31;1.80;;;1.70;;
8777;SDS011;4425;50.872;4.712;2022-10-16T03:08:58;2.53;;;1.70;;
8777;SDS011;4425;50.872;4.712;2022-10-16T03:11:25;4.38;;;1.98;;
8777;SDS011;4425;50.872;4.712;2022-10-16T03:13:53;2.17;;;1.70;;
8777;SDS011;4425;50.872;4.712;2022-10-16T03:16:20;1.80;;;1.70;;
8777;SDS011;4425;50.872;4.712;2022-10-16T03:18:48;2.97;;;1.83;;
8777;SDS011;4425;50.872;4.712;2022-10-16T03:21:25;1.85;;;1.70;;
8777;SDS011;4425;50.872;4.712;2022-10-16T03:23:53;3.17;;;1.83;;
8777;SDS011;4425;50.872;4.712;2022-10-16T03:26:20;3.80;;;1.92;;
8777;SDS011;4425;50.872;4.712;2022-10-16T03:28:48;3.25;;;1.80;;
8777;SDS011;4425;50.872;4.712;2022-10-16T03:31:15;2.72;;;2.00;;
8777;SDS011;4425;50.872;4.712;2022-10-16T03:33:42;4.00;;;1.80;;
8777;SDS011;4425;50.872;4.712;2022-10-16T03:36:09;2.35;;;1.90;;
8777;SDS011;4425;50.872;4.712;2022-10-16T03:38:38;3.90;;;1.90;;
8777;SDS011;4425;50.872;4.712;2022-10-16T03:41:06;2.47;;;1.90;;
8777;SDS011;4425;50.872;4.712;2022-10-16T03:43:33;2.40;;;1.90;;
8777;SDS011;4425;50.872;4.712;2022-10-16T03:46:00;3.38;;;2.00;;
8777;SDS011;4425;50.872;4.712;2022-10-16T03:48:28;1.90;;;1.80;;
8777;SDS011;4425;50.872;4.712;2022-10-16T03:50:55;4.75;;;1.90;;
8777;SDS011;4425;50.872;4.712;2022-10-16T03:53:22;3.65;;;1.80;;
8777;SDS011;4425;50.872;4.712;2022-10-16T03:55:50;2.13;;;1.92;;
8777;SDS011;4425;50.872;4.712;2022-10-16T03:58:17;5.10;;;2.00;;
8777;SDS011;4425;50.872;4.712;2022-10-16T04:00:46;2.60;;;1.95;;
8777;SDS011;4425;50.872;4.712;2022-10-16T04:03:18;2.00;;;1.90;;
8777;SDS011;4425;50.872;4.712;2022-10-16T04:05:51;3.20;;;1.92;;
8777;SDS011;4425;50.872;4.712;2022-10-16T04:08:18;3.03;;;1.73;;
8777;SDS011;4425;50.872;4.712;2022-10-16T04:10:45;2.60;;;1.80;;
8777;SDS011;4425;50.872;4.712;2022-10-16T04:13:14;3.50;;;1.90;;
8777;SDS011;4425;50.872;4.712;2022-10-16T04:15:41;2.03;;;1.90;;
8777;SDS011;4425;50.872;4.712;2022-10-16T04:18:09;2.37;;;2.17;;
8777;SDS011;4425;50.872;4.712;2022-10-16T04:20:37;2.45;;;1.80;;
8777;SDS011;4425;50.872;4.712;2022-10-16T04:23:04;2.35;;;2.00;;
8777;SDS011;4425;50.872;4.712;2022-10-16T04:25:31;2.25;;;2.05;;
8777;SDS011;4425;50.872;4.712;2022-10-16T04:27:59;2.35;;;2.10;;
8777;SDS011;4425;50.872;4.712;2022-10-16T04:30:27;2.35;;;2.00;;
8777;SDS011;4425;50.872;4.712;2022-10-16T04:32:54;2.57;;;2.00;;
8777;SDS011;4425;50.872;4.712;2022-10-16T04:35:21;3.15;;;1.92;;
8777;SDS011;4425;50.872;4.712;2022-10-16T04:37:48;2.25;;;2.00;;
8777;SDS011;4425;50.872;4.712;2022-10-16T04:40:15;5.35;;;2.28;;
8777;SDS011;4425;50.872;4.712;2022-10-16T04:42:43;4.53;;;2.10;;
8777;SDS011;4425;50.872;4.712;2022-10-16T04:45:10;2.47;;;2.25;;
8777;SDS011;4425;50.872;4.712;2022-10-16T04:47:38;5.97;;;2.50;;
8777;SDS011;4425;50.872;4.712;2022-10-16T04:50:05;3.45;;;2.28;;
8777;SDS011;4425;50.872;4.712;2022-10-16T04:52:32;3.65;;;2.17;;
8777;SDS011;4425;50.872;4.712;2022-10-16T04:55:01;3.58;;;2.15;;
8777;SDS011;4425;50.872;4.712;2022-10-16T04:57:28;2.50;;;2.20;;
8777;SDS011;4425;50.872;4.712;2022-10-16T04:59:56;4.68;;;2.40;;
8777;SDS011;4425;50.872;4.712;2022-10-16T05:02:23;5.00;;;2.35;;
8777;SDS011;4425;50.872;4.712;2022-10-16T05:04:51;3.60;;;2.38;;
8777;SDS011;4425;50.872;4.712;2022-10-16T05:07:18;5.33;;;2.20;;
8777;SDS011;4425;50.872;4.712;2022-10-16T05:09:45;3.95;;;2.33;;
8777;SDS011;4425;50.872;4.712;2022-10-16T05:12:12;2.28;;;2.10;;
8777;SDS011;4425;50.872;4.712;2022-10-16T05:14:40;5.25;;;2.50;;
8777;SDS011;4425;50.872;4.712;2022-10-16T05:17:06;2.50;;;2.30;;
8777;SDS011;4425;50.872;4.712;2022-10-16T05:19:34;3.67;;;2.35;;
8777;SDS011;4425;50.872;4.712;2022-10-16T05:22:02;3.95;;;2.45;;
8777;SDS011;4425;50.872;4.712;2022-10-16T05:24:29;2.47;;;2.28;;
8777;SDS011;4425;50.872;4.712;2022-10-16T05:26:56;3.55;;;2.53;;
8777;SDS011;4425;50.872;4.712;2022-10-16T05:29:23;3.17;;;2.80;;
8777;SDS011;4425;50.872;4.712;2022-10-16T05:31:52;5.18;;;2.50;;
8777;SDS011;4425;50.872;4.712;2022-10-16T05:34:19;3.80;;;2.55;;
8777;SDS011;4425;50.872;4.712;2022-10-16T05:36:46;4.65;;;2.40;;
8777;SDS011;4425;50.872;4.712;2022-10-16T05:39:15;2.70;;;2.30;;
8777;SDS011;4425;50.872;4.712;2022-10-16T05:41:42;3.78;;;2.55;;
8777;SDS011;4425;50.872;4.712;2022-10-16T05:44:10;3.17;;;2.53;;
8777;SDS011;4425;50.872;4.712;2022-10-16T05:46:37;4.05;;;2.60;;
8777;SDS011;4425;50.872;4.712;2022-10-16T05:49:04;4.57;;;2.45;;
8777;SDS011;4425;50.872;4.712;2022-10-16T05:51:31;4.38;;;2.80;;
8777;SDS011;4425;50.872;4.712;2022-10-16T05:53:58;4.57;;;2.58;;
8777;SDS011;4425;50.872;4.712;2022-10-16T05:56:27;2.60;;;2.40;;
8777;SDS011;4425;50.872;4.712;2022-10-16T05:58:54;2.67;;;2.42;;
8777;SDS011;4425;50.872;4.712;2022-10-16T06:03:53;2.63;;;2.42;;
8777;SDS011;4425;50.872;4.712;2022-10-16T06:09:02;4.18;;;2.63;;
8777;SDS011;4425;50.872;4.712;2022-10-16T06:11:32;2.92;;;2.40;;
8777;SDS011;4425;50.872;4.712;2022-10-16T06:14:00;2.95;;;2.70;;
8777;SDS011;4425;50.872;4.712;2022-10-16T06:16:35;3.50;;;2.67;;
8777;SDS011;4425;50.872;4.712;2022-10-16T06:19:03;3.07;;;2.43;;
8777;SDS011;4425;50.872;4.712;2022-10-16T06:21:34;3.20;;;2.50;;
8777;SDS011;4425;50.872;4.712;2022-10-16T06:24:13;3.20;;;2.60;;
8777;SDS011;4425;50.872;4.712;2022-10-16T06:26:45;3.00;;;2.80;;
8777;SDS011;4425;50.872;4.712;2022-10-16T06:29:12;4.30;;;2.70;;
8777;SDS011;4425;50.872;4.712;2022-10-16T06:31:39;3.85;;;2.70;;
8777;SDS011;4425;50.872;4.712;2022-10-16T06:34:08;3.63;;;2.88;;
8777;SDS011;4425;50.872;4.712;2022-10-16T06:36:36;6.50;;;2.75;;
8777;SDS011;4425;50.872;4.712;2022-10-16T06:39:04;4.32;;;2.88;;
8777;SDS011;4425;50.872;4.712;2022-10-16T06:41:32;3.17;;;2.80;;
8777;SDS011;4425;50.872;4.712;2022-10-16T06:44:04;3.88;;;2.70;;
8777;SDS011;4425;50.872;4.712;2022-10-16T06:46:31;3.53;;;2.80;;
8777;SDS011;4425;50.872;4.712;2022-10-16T06:48:58;3.23;;;2.90;;
8777;SDS011;4425;50.872;4.712;2022-10-16T06:51:29;4.53;;;2.95;;
8777;SDS011;4425;50.872;4.712;2022-10-16T06:53:59;3.17;;;2.92;;
8777;SDS011;4425;50.872;4.712;2022-10-16T06:56:27;3.35;;;3.05;;
8777;SDS011;4425;50.872;4.712;2022-10-16T06:58:56;4.85;;;3.20;;
8777;SDS011;4425;50.872;4.712;2022-10-16T07:01:24;3.33;;;2.83;;
8777;SDS011;4425;50.872;4.712;2022-10-16T07:03:52;6.18;;;3.20;;
8777;SDS011;4425;50.872;4.712;2022-10-16T07:06:20;3.55;;;2.90;;
8777;SDS011;4425;50.872;4.712;2022-10-16T07:08:48;3.95;;;2.70;;
8777;SDS011;4425;50.872;4.712;2022-10-16T07:11:17;5.13;;;3.00;;
8777;SDS011;4425;50.872;4.712;2022-10-16T07:13:46;3.85;;;2.80;;
8777;SDS011;4425;50.872;4.712;2022-10-16T07:16:15;3.78;;;2.80;;
8777;SDS011;4425;50.872;4.712;2022-10-16T07:18:45;3.53;;;2.90;;
8777;SDS011;4425;50.872;4.712;2022-10-16T07:21:14;3.70;;;2.75;;
8777;SDS011;4425;50.872;4.712;2022-10-16T07:23:42;6.90;;;2.90;;
8777;SDS011;4425;50.872;4.712;2022-10-16T07:26:10;3.92;;;2.72;;
8777;SDS011;4425;50.872;4.712;2022-10-16T07:28:37;3.90;;;3.00;;
8777;SDS011;4425;50.872;4.712;2022-10-16T07:31:06;3.17;;;2.73;;
8777;SDS011;4425;50.872;4.712;2022-10-16T07:33:35;3.45;;;2.45;;
8777;SDS011;4425;50.872;4.712;2022-10-16T07:36:06;5.68;;;2.58;;
8777;SDS011;4425;50.872;4.712;2022-10-16T07:38:33;2.42;;;2.22;;
8777;SDS011;4425;50.872;4.712;2022-10-16T07:41:00;4.40;;;2.20;;
8777;SDS011;4425;50.872;4.712;2022-10-16T07:43:29;4.80;;;2.20;;
8777;SDS011;4425;50.872;4.712;2022-10-16T07:45:57;3.53;;;2.40;;
8777;SDS011;4425;50.872;4.712;2022-10-16T07:48:26;3.30;;;2.20;;
8777;SDS011;4425;50.872;4.712;2022-10-16T07:50:56;5.25;;;2.33;;
8777;SDS011;4425;50.872;4.712;2022-10-16T07:53:25;3.15;;;2.13;;
8777;SDS011;4425;50.872;4.712;2022-10-16T07:55:57;3.63;;;2.35;;
8777;SDS011;4425;50.872;4.712;2022-10-16T07:58:25;2.58;;;2.15;;
8777;SDS011;4425;50.872;4.712;2022-10-16T08:00:52;3.67;;;2.40;;
8777;SDS011;4425;50.872;4.712;2022-10-16T08:03:19;2.47;;;2.20;;
8777;SDS011;4425;50.872;4.712;2022-10-16T08:05:46;2.70;;;2.20;;
8777;SDS011;4425;50.872;4.712;2022-10-16T08:08:13;5.85;;;2.50;;
8777;SDS011;4425;50.872;4.712;2022-10-16T08:10:47;2.40;;;2.20;;
8777;SDS011;4425;50.872;4.712;2022-10-16T08:15:49;2.72;;;2.30;;
8777;SDS011;4425;50.872;4.712;2022-10-16T08:18:16;3.40;;;2.40;;
8777;SDS011;4425;50.872;4.712;2022-10-16T08:20:43;4.82;;;2.60;;
8777;SDS011;4425;50.872;4.712;2022-10-16T08:23:10;3.28;;;2.60;;
8777;SDS011;4425;50.872;4.712;2022-10-16T08:25:38;3.85;;;2.78;;
8777;SDS011;4425;50.872;4.712;2022-10-16T08:28:09;2.88;;;2.30;;
8777;SDS011;4425;50.872;4.712;2022-10-16T08:30:37;4.32;;;2.60;;
8777;SDS011;4425;50.872;4.712;2022-10-16T08:33:05;4.93;;;3.60;;
8777;SDS011;4425;50.872;4.712;2022-10-16T08:35:32;2.38;;;2.13;;
8777;SDS011;4425;50.872;4.712;2022-10-16T08:37:59;3.45;;;2.47;;
8777;SDS011;4425;50.872;4.712;2022-10-16T08:40:27;4.45;;;2.40;;
8777;SDS011;4425;50.872;4.712;2022-10-16T08:45:56;5.03;;;2.25;;
8777;SDS011;4425;50.872;4.712;2022-10-16T08:48:48;4.47;;;2.28;;
8777;SDS011;4425;50.872;4.712;2022-10-16T08:51:18;3.25;;;2.40;;
8777;SDS011;4425;50.872;4.712;2022-10-16T08:53:49;4.28;;;2.15;;
8777;SDS011;4425;50.872;4.712;2022-10-16T08:56:21;4.32;;;2.25;;
8777;SDS011;4425;50.872;4.712;2022-10-16T08:58:51;6.13;;;2.07;;
8777;SDS011;4425;50.872;4.712;2022-10-16T09:01:19;3.70;;;2.08;;
8777;SDS011;4425;50.872;4.712;2022-10-16T09:03:53;3.85;;;2.10;;
8777;SDS011;4425;50.872;4.712;2022-10-16T09:06:41;3.40;;;2.22;;
8777;SDS011;4425;50.872;4.712;2022-10-16T09:09:24;2.47;;;1.95;;
8777;SDS011;4425;50.872;4.712;2022-10-16T09:12:04;5.65;;;2.20;;
8777;SDS011;4425;50.872;4.712;2022-10-16T09:14:43;4.15;;;1.92;;
8777;SDS011;4425;50.872;4.712;2022-10-16T09:17:22;4.63;;;2.10;;
8777;SDS011;4425;50.872;4.712;2022-10-16T09:19:56;3.03;;;2.00;;
8777;SDS011;4425;50.872;4.712;2022-10-16T09:22:37;6.28;;;2.13;;
8777;SDS011;4425;50.872;4.712;2022-10-16T09:25:12;3.63;;;1.90;;
8777;SDS011;4425;50.872;4.712;2022-10-16T09:27:48;4.22;;;1.95;;
8777;SDS011;4425;50.872;4.712;2022-10-16T09:30:20;2.20;;;1.70;;
8777;SDS011;4425;50.872;4.712;2022-10-16T09:32:49;2.37;;;1.70;;
8777;SDS011;4425;50.872;4.712;2022-10-16T09:35:19;3.33;;;2.10;;
8777;SDS011;4425;50.872;4.712;2022-10-16T09:37:49;4.82;;;1.90;;
8777;SDS011;4425;50.872;4.712;2022-10-16T09:40:26;3.00;;;1.87;;
8777;SDS011;4425;50.872;4.712;2022-10-16T09:42:57;3.17;;;1.90;;
8777;SDS011;4425;50.872;4.712;2022-10-16T09:45:32;3.55;;;2.00;;
8777;SDS011;4425;50.872;4.712;2022-10-16T09:48:00;3.05;;;1.80;;
8777;SDS011;4425;50.872;4.712;2022-10-16T09:50:36;4.80;;;1.80;;
8777;SDS011;4425;50.872;4.712;2022-10-16T09:53:04;4.30;;;2.00;;
8777;SDS011;4425;50.872;4.712;2022-10-16T09:55:34;4.38;;;1.95;;
8777;SDS011;4425;50.872;4.712;2022-10-16T09:58:02;4.32;;;1.90;;
8777;SDS011;4425;50.872;4.712;2022-10-16T10:00:29;3.75;;;1.90;;
8777;SDS011;4425;50.872;4.712;2022-10-16T10:02:57;3.33;;;1.85;;
8777;SDS011;4425;50.872;4.712;2022-10-16T10:05:25;3.30;;;1.73;;
8777;SDS011;4425;50.872;4.712;2022-10-16T10:07:57;2.90;;;1.80;;
8777;SDS011;4425;50.872;4.712;2022-10-16T10:10:27;3.58;;;1.83;;
8777;SDS011;4425;50.872;4.712;2022-10-16T10:12:56;3.33;;;1.90;;
8777;SDS011;4425;50.872;4.712;2022-10-16T10:15:24;4.85;;;1.77;;
8777;SDS011;4425;50.872;4.712;2022-10-16T10:18:15;5.17;;;2.50;;
8777;SDS011;4425;50.872;4.712;2022-10-16T10:20:45;4.05;;;1.80;;
8777;SDS011;4425;50.872;4.712;2022-10-16T10:23:20;2.85;;;1.88;;
8777;SDS011;4425;50.872;4.712;2022-10-16T10:25:49;3.85;;;1.90;;
8777;SDS011;4425;50.872;4.712;2022-10-16T10:31:14;2.65;;;1.70;;
8777;SDS011;4425;50.872;4.712;2022-10-16T10:33:51;4.82;;;1.90;;
8777;SDS011;4425;50.872;4.712;2022-10-16T10:36:25;4.18;;;1.80;;
8777;SDS011;4425;50.872;4.712;2022-10-16T10:44:50;2.00;;;1.58;;
8777;SDS011;4425;50.872;4.712;2022-10-16T10:47:25;3.15;;;1.50;;
8777;SDS011;4425;50.872;4.712;2022-10-16T10:50:05;3.88;;;1.77;;
8777;SDS011;4425;50.872;4.712;2022-10-16T10:52:41;4.88;;;1.70;;
8777;SDS011;4425;50.872;4.712;2022-10-16T10:55:20;3.53;;;1.77;;
8777;SDS011;4425;50.872;4.712;2022-10-16T10:57:56;3.63;;;1.70;;
8777;SDS011;4425;50.872;4.712;2022-10-16T11:00:43;3.45;;;1.70;;
8777;SDS011;4425;50.872;4.712;2022-10-16T11:03:26;4.75;;;3.05;;
8777;SDS011;4425;50.872;4.712;2022-10-16T11:06:04;2.47;;;1.70;;
8777;SDS011;4425;50.872;4.712;2022-10-16T11:08:35;4.60;;;1.67;;
8777;SDS011;4425;50.872;4.712;2022-10-16T11:11:06;2.35;;;1.52;;
8777;SDS011;4425;50.872;4.712;2022-10-16T11:13:38;3.30;;;1.50;;
8777;SDS011;4425;50.872;4.712;2022-10-16T11:16:13;4.43;;;1.80;;
8777;SDS011;4425;50.872;4.712;2022-10-16T11:18:46;3.33;;;1.42;;
8777;SDS011;4425;50.872;4.712;2022-10-16T11:21:19;2.97;;;1.52;;
8777;SDS011;4425;50.872;4.712;2022-10-16T11:23:50;3.33;;;1.63;;
8777;SDS011;4425;50.872;4.712;2022-10-16T11:26:23;3.17;;;1.60;;
8777;SDS011;4425;50.872;4.712;2022-10-16T11:28:53;4.07;;;1.85;;
8777;SDS011;4425;50.872;4.712;2022-10-16T11:31:24;4.37;;;1.60;;
8777;SDS011;4425;50.872;4.712;2022-10-16T11:34:01;1.60;;;1.27;;
8777;SDS011;4425;50.872;4.712;2022-10-16T11:36:35;2.60;;;1.60;;
8777;SDS011;4425;50.872;4.712;2022-10-16T11:39:08;3.20;;;1.52;;
8777;SDS011;4425;50.872;4.712;2022-10-16T11:41:47;3.05;;;1.63;;
8777;SDS011;4425;50.872;4.712;2022-10-16T11:44:27;3.25;;;1.60;;
8777;SDS011;4425;50.872;4.712;2022-10-16T11:47:06;3.05;;;1.45;;
8777;SDS011;4425;50.872;4.712;2022-10-16T11:49:39;3.97;;;1.50;;
8777;SDS011;4425;50.872;4.712;2022-10-16T11:52:11;2.50;;;1.40;;
8777;SDS011;4425;50.872;4.712;2022-10-16T11:54:44;5.60;;;1.77;;
8777;SDS011;4425;50.872;4.712;2022-10-16T11:57:16;2.83;;;1.58;;
8777;SDS011;4425;50.872;4.712;2022-10-16T11:59:48;3.00;;;1.60;;
8777;SDS011;4425;50.872;4.712;2022-10-16T12:02:26;2.65;;;1.70;;
8777;SDS011;4425;50.872;4.712;2022-10-16T12:08:50;1.73;;;1.60;;
8777;SDS011;4425;50.872;4.712;2022-10-16T12:11:31;2.00;;;1.33;;
8777;SDS011;4425;50.872;4.712;2022-10-16T12:14:04;3.65;;;1.55;;
8777;SDS011;4425;50.872;4.712;2022-10-16T12:16:33;2.40;;;1.52;;
8777;SDS011;4425;50.872;4.712;2022-10-16T12:19:10;2.90;;;1.65;;
8777;SDS011;4425;50.872;4.712;2022-10-16T12:21:38;3.42;;;1.67;;
8777;SDS011;4425;50.872;4.712;2022-10-16T12:24:19;3.38;;;1.58;;
8777;SDS011;4425;50.872;4.712;2022-10-16T12:26:52;3.03;;;2.00;;
8777;SDS011;4425;50.872;4.712;2022-10-16T12:29:23;3.75;;;1.92;;
8777;SDS011;4425;50.872;4.712;2022-10-16T12:32:02;4.22;;;1.75;;
8777;SDS011;4425;50.872;4.712;2022-10-16T12:34:34;5.28;;;1.90;;
8777;SDS011;4425;50.872;4.712;2022-10-16T12:37:10;2.75;;;1.60;;
8777;SDS011;4425;50.872;4.712;2022-10-16T12:39:44;2.50;;;1.88;;
8777;SDS011;4425;50.872;4.712;2022-10-16T12:45:12;4.70;;;1.50;;
8777;SDS011;4425;50.872;4.712;2022-10-16T12:47:51;2.88;;;1.48;;
8777;SDS011;4425;50.872;4.712;2022-10-16T12:50:25;2.63;;;1.30;;
8777;SDS011;4425;50.872;4.712;2022-10-16T12:52:53;3.30;;;1.50;;
8777;SDS011;4425;50.872;4.712;2022-10-16T12:55:22;2.55;;;1.33;;
8777;SDS011;4425;50.872;4.712;2022-10-16T12:58:00;2.00;;;1.35;;
8777;SDS011;4425;50.872;4.712;2022-10-16T13:00:37;2.00;;;1.40;;
8777;SDS011;4425;50.872;4.712;2022-10-16T13:06:13;1.50;;;1.30;;
8777;SDS011;4425;50.872;4.712;2022-10-16T13:08:58;1.50;;;1.20;;
8777;SDS011;4425;50.872;4.712;2022-10-16T13:11:47;3.65;;;1.50;;
8777;SDS011;4425;50.872;4.712;2022-10-16T13:14:29;3.40;;;1.60;;
8777;SDS011;4425;50.872;4.712;2022-10-16T13:17:18;2.57;;;1.23;;
8777;SDS011;4425;50.872;4.712;2022-10-16T13:19:53;1.83;;;1.40;;
8777;SDS011;4425;50.872;4.712;2022-10-16T13:22:30;2.88;;;1.63;;
8777;SDS011;4425;50.872;4.712;2022-10-16T13:25:13;2.80;;;1.58;;
8777;SDS011;4425;50.872;4.712;2022-10-16T13:27:54;2.03;;;1.40;;
8777;SDS011;4425;50.872;4.712;2022-10-16T13:30:23;1.92;;;1.58;;
8777;SDS011;4425;50.872;4.712;2022-10-16T13:32:57;2.70;;;1.50;;
8777;SDS011;4425;50.872;4.712;2022-10-16T13:35:28;3.28;;;1.60;;
8777;SDS011;4425;50.872;4.712;2022-10-16T13:38:08;2.08;;;1.52;;
8777;SDS011;4425;50.872;4.712;2022-10-16T13:40:53;2.88;;;1.70;;
8777;SDS011;4425;50.872;4.712;2022-10-16T13:43:24;2.25;;;1.50;;
8777;SDS011;4425;50.872;4.712;2022-10-16T13:45:55;3.25;;;1.60;;
8777;SDS011;4425;50.872;4.712;2022-10-16T13:48:23;2.30;;;1.40;;
8777;SDS011;4425;50.872;4.712;2022-10-16T13:51:03;1.88;;;1.55;;
8777;SDS011;4425;50.872;4.712;2022-10-16T13:53:36;3.37;;;1.60;;
8777;SDS011;4425;50.872;4.712;2022-10-16T13:56:05;5.80;;;1.98;;
8777;SDS011;4425;50.872;4.712;2022-10-16T13:58:37;3.20;;;1.75;;
8777;SDS011;4425;50.872;4.712;2022-10-16T14:01:15;3.05;;;1.70;;
8777;SDS011;4425;50.872;4.712;2022-10-16T14:03:44;1.67;;;1.40;;
8777;SDS011;4425;50.872;4.712;2022-10-16T14:06:13;2.20;;;1.50;;
8777;SDS011;4425;50.872;4.712;2022-10-16T14:08:43;3.58;;;1.60;;
8777;SDS011;4425;50.872;4.712;2022-10-16T14:11:20;1.65;;;1.33;;
8777;SDS011;4425;50.872;4.712;2022-10-16T14:14:00;2.30;;;1.50;;
8777;SDS011;4425;50.872;4.712;2022-10-16T14:16:30;3.60;;;1.50;;
8777;SDS011;4425;50.872;4.712;2022-10-16T14:18:59;2.40;;;1.50;;
8777;SDS011;4425;50.872;4.712;2022-10-16T14:21:29;3.58;;;1.42;;
8777;SDS011;4425;50.872;4.712;2022-10-16T14:23:59;1.83;;;1.40;;
8777;SDS011;4425;50.872;4.712;2022-10-16T14:26:40;2.20;;;1.45;;
8777;SDS011;4425;50.872;4.712;2022-10-16T14:29:12;2.75;;;1.52;;
8777;SDS011;4425;50.872;4.712;2022-10-16T14:31:42;3.60;;;1.33;;
8777;SDS011;4425;50.872;4.712;2022-10-16T14:34:23;2.10;;;1.50;;
8777;SDS011;4425;50.872;4.712;2022-10-16T14:36:52;1.88;;;1.42;;
8777;SDS011;4425;50.872;4.712;2022-10-16T14:39:20;1.75;;;1.30;;
8777;SDS011;4425;50.872;4.712;2022-10-16T14:41:50;1.88;;;1.40;;
8777;SDS011;4425;50.872;4.712;2022-10-16T14:44:28;3.10;;;1.58;;
8777;SDS011;4425;50.872;4.712;2022-10-16T14:47:08;4.00;;;1.53;;
8777;SDS011;4425;50.872;4.712;2022-10-16T14:49:41;2.80;;;1.70;;
8777;SDS011;4425;50.872;4.712;2022-10-16T14:52:10;1.52;;;1.30;;
8777;SDS011;4425;50.872;4.712;2022-10-16T14:54:38;3.50;;;1.50;;
8777;SDS011;4425;50.872;4.712;2022-10-16T14:57:05;2.38;;;1.55;;
8777;SDS011;4425;50.872;4.712;2022-10-16T14:59:44;2.20;;;1.50;;
8777;SDS011;4425;50.872;4.712;2022-10-16T15:02:16;1.58;;;1.40;;
8777;SDS011;4425;50.872;4.712;2022-10-16T15:04:49;1.77;;;1.30;;
8777;SDS011;4425;50.872;4.712;2022-10-16T15:07:16;2.35;;;1.38;;
8777;SDS011;4425;50.872;4.712;2022-10-16T15:09:43;3.60;;;3.25;;
8777;SDS011;4425;50.872;4.712;2022-10-16T15:12:10;2.03;;;1.45;;
8777;SDS011;4425;50.872;4.712;2022-10-16T15:14:37;2.83;;;1.70;;
8777;SDS011;4425;50.872;4.712;2022-10-16T15:17:07;1.40;;;1.30;;
8777;SDS011;4425;50.872;4.712;2022-10-16T15:19:35;3.45;;;1.60;;
8777;SDS011;4425;50.872;4.712;2022-10-16T15:22:02;1.90;;;1.70;;
8777;SDS011;4425;50.872;4.712;2022-10-16T15:24:29;2.63;;;1.60;;
8777;SDS011;4425;50.872;4.712;2022-10-16T15:26:56;2.03;;;1.45;;
8777;SDS011;4425;50.872;4.712;2022-10-16T15:29:22;2.60;;;1.52;;
8777;SDS011;4425;50.872;4.712;2022-10-16T15:31:50;3.80;;;1.50;;
8777;SDS011;4425;50.872;4.712;2022-10-16T15:34:18;2.30;;;1.95;;
8777;SDS011;4425;50.872;4.712;2022-10-16T15:36:46;2.38;;;2.00;;
8777;SDS011;4425;50.872;4.712;2022-10-16T15:39:15;2.10;;;1.55;;
8777;SDS011;4425;50.872;4.712;2022-10-16T15:41:45;2.22;;;1.60;;
8777;SDS011;4425;50.872;4.712;2022-10-16T15:44:15;3.75;;;1.80;;
8777;SDS011;4425;50.872;4.712;2022-10-16T15:46:43;3.45;;;1.80;;
8777;SDS011;4425;50.872;4.712;2022-10-16T15:49:11;3.93;;;1.90;;
8777;SDS011;4425;50.872;4.712;2022-10-16T15:51:40;2.78;;;1.85;;
8777;SDS011;4425;50.872;4.712;2022-10-16T15:54:09;1.88;;;1.77;;
8777;SDS011;4425;50.872;4.712;2022-10-16T15:56:36;3.05;;;1.60;;
8777;SDS011;4425;50.872;4.712;2022-10-16T15:59:04;2.35;;;1.52;;
8777;SDS011;4425;50.872;4.712;2022-10-16T16:01:32;5.25;;;2.20;;
8777;SDS011;4425;50.872;4.712;2022-10-16T16:04:00;1.85;;;1.50;;
8777;SDS011;4425;50.872;4.712;2022-10-16T16:06:27;3.80;;;1.60;;
8777;SDS011;4425;50.872;4.712;2022-10-16T16:08:56;1.70;;;1.52;;
8777;SDS011;4425;50.872;4.712;2022-10-16T16:11:24;2.55;;;1.65;;